SWA401 KMCO-MBPV
Flight info
| Callsign | SWA401 |
|---|---|
| Flight time | N/A |
| Altitude | 39000 |
| Route | DDANY3 JIPOD DCT VENDS Y306 CHASO DCT OREDE BR1L RAHAM G629 PVN |
| Aircraft | B737/M-SDE2E3FGHIRWXY/LB1 |
Departure
| Time | N/A |
|---|---|
| Airport | Orlando International Airport (KMCO) |
Arrival
| Time | 2026-05-03 21:06 |
|---|---|
| Airport | Providenciales International Airport (MBPV) |
| Time | Latitude | Longitude | Altitude | Speed | Heading |
|---|---|---|---|---|---|
| 2026-05-03 20:15 | 25.53782 | -75.89137 | 39025 ft | 489 kts | 139° |
| 2026-05-03 20:15 | 25.49191 | -75.83581 | 39033 ft | 489 kts | 139° |
| 2026-05-03 20:16 | 25.44589 | -75.78019 | 39019 ft | 490 kts | 139° |
| 2026-05-03 20:16 | 25.39982 | -75.72456 | 39031 ft | 491 kts | 139° |
| 2026-05-03 20:17 | 25.35369 | -75.66893 | 39031 ft | 492 kts | 139° |
| 2026-05-03 20:17 | 25.30735 | -75.61312 | 39029 ft | 492 kts | 139° |
| 2026-05-03 20:18 | 25.26135 | -75.55777 | 39031 ft | 493 kts | 139° |
| 2026-05-03 20:18 | 25.21493 | -75.50200 | 39004 ft | 493 kts | 139° |
| 2026-05-03 20:19 | 25.16851 | -75.44628 | 39018 ft | 493 kts | 139° |
| 2026-05-03 20:19 | 25.12207 | -75.39062 | 39021 ft | 493 kts | 138° |
| 2026-05-03 20:20 | 25.07558 | -75.33496 | 39026 ft | 493 kts | 138° |
| 2026-05-03 20:20 | 25.02903 | -75.27930 | 39028 ft | 493 kts | 139° |
| 2026-05-03 20:21 | 24.98252 | -75.22376 | 39029 ft | 494 kts | 139° |
| 2026-05-03 20:21 | 24.93610 | -75.16838 | 39027 ft | 494 kts | 139° |
| 2026-05-03 20:22 | 24.88951 | -75.11287 | 39024 ft | 494 kts | 139° |
| 2026-05-03 20:22 | 24.84291 | -75.05742 | 39020 ft | 493 kts | 138° |
| 2026-05-03 20:23 | 24.79627 | -75.00197 | 39026 ft | 493 kts | 138° |
| 2026-05-03 20:23 | 24.77311 | -74.97446 | 38831 ft | 489 kts | 138° |
| 2026-05-03 20:23 | 24.75014 | -74.94716 | 38563 ft | 481 kts | 138° |
| 2026-05-03 20:23 | 24.72757 | -74.92032 | 38286 ft | 473 kts | 138° |
| 2026-05-03 20:24 | 24.70567 | -74.89432 | 38007 ft | 467 kts | 138° |
| 2026-05-03 20:24 | 24.68337 | -74.86790 | 37736 ft | 465 kts | 138° |
| 2026-05-03 20:24 | 24.66167 | -74.84223 | 37514 ft | 464 kts | 138° |
| 2026-05-03 20:24 | 24.63972 | -74.81629 | 37248 ft | 463 kts | 138° |
| 2026-05-03 20:25 | 24.61774 | -74.79033 | 36998 ft | 463 kts | 138° |
| 2026-05-03 20:25 | 24.59585 | -74.76448 | 36757 ft | 463 kts | 138° |
| 2026-05-03 20:25 | 24.57380 | -74.73845 | 36515 ft | 464 kts | 138° |
| 2026-05-03 20:25 | 24.55185 | -74.71254 | 36275 ft | 465 kts | 138° |
| 2026-05-03 20:26 | 24.53004 | -74.68681 | 36031 ft | 466 kts | 138° |
| 2026-05-03 20:26 | 24.50787 | -74.66067 | 35793 ft | 467 kts | 138° |
| 2026-05-03 20:26 | 24.48575 | -74.63458 | 35570 ft | 468 kts | 138° |
| 2026-05-03 20:26 | 24.46356 | -74.60844 | 35335 ft | 468 kts | 138° |
| 2026-05-03 20:27 | 24.44136 | -74.58228 | 35104 ft | 469 kts | 138° |
| 2026-05-03 20:27 | 24.41909 | -74.55607 | 34873 ft | 469 kts | 138° |
| 2026-05-03 20:27 | 24.39686 | -74.52991 | 34638 ft | 469 kts | 138° |
| 2026-05-03 20:27 | 24.37467 | -74.50382 | 34424 ft | 469 kts | 138° |
| 2026-05-03 20:28 | 24.35240 | -74.47765 | 34208 ft | 468 kts | 138° |
| 2026-05-03 20:28 | 24.33017 | -74.45154 | 33971 ft | 468 kts | 138° |
| 2026-05-03 20:28 | 24.30800 | -74.42551 | 33717 ft | 467 kts | 138° |
| 2026-05-03 20:28 | 24.28578 | -74.39944 | 33462 ft | 467 kts | 138° |
| 2026-05-03 20:29 | 24.26369 | -74.37354 | 33206 ft | 466 kts | 138° |
| 2026-05-03 20:29 | 24.24157 | -74.34761 | 33070 ft | 465 kts | 138° |
| 2026-05-03 20:29 | 24.21974 | -74.32206 | 33049 ft | 466 kts | 138° |
| 2026-05-03 20:30 | 24.17547 | -74.27026 | 33010 ft | 466 kts | 138° |
| 2026-05-03 20:30 | 24.13118 | -74.21849 | 33034 ft | 466 kts | 138° |
| 2026-05-03 20:31 | 24.08688 | -74.16677 | 33039 ft | 466 kts | 138° |
| 2026-05-03 20:31 | 24.04258 | -74.11509 | 33030 ft | 466 kts | 138° |
| 2026-05-03 20:32 | 23.99789 | -74.06303 | 33029 ft | 466 kts | 138° |
| 2026-05-03 20:32 | 23.95354 | -74.01140 | 33030 ft | 466 kts | 138° |
| 2026-05-03 20:33 | 23.90922 | -73.95987 | 33036 ft | 465 kts | 138° |
| 2026-05-03 20:33 | 23.86497 | -73.90847 | 33031 ft | 464 kts | 138° |
| 2026-05-03 20:34 | 23.82073 | -73.85715 | 33027 ft | 463 kts | 138° |
| 2026-05-03 20:34 | 23.77686 | -73.80631 | 33029 ft | 463 kts | 138° |
| 2026-05-03 20:35 | 23.73266 | -73.75514 | 33035 ft | 463 kts | 138° |
| 2026-05-03 20:35 | 23.68847 | -73.70405 | 33041 ft | 463 kts | 138° |
| 2026-05-03 20:36 | 23.64422 | -73.65292 | 33039 ft | 464 kts | 138° |
| 2026-05-03 20:36 | 23.59925 | -73.60103 | 33035 ft | 463 kts | 138° |
| 2026-05-03 20:37 | 23.55502 | -73.55003 | 33031 ft | 463 kts | 138° |
| 2026-05-03 20:37 | 23.51110 | -73.49945 | 33036 ft | 463 kts | 138° |
| 2026-05-03 20:38 | 23.46686 | -73.44856 | 33026 ft | 462 kts | 137° |
| 2026-05-03 20:38 | 23.42266 | -73.39777 | 33033 ft | 462 kts | 137° |
| 2026-05-03 20:38 | 23.40073 | -73.37256 | 32795 ft | 455 kts | 138° |
| 2026-05-03 20:39 | 23.37919 | -73.34780 | 32534 ft | 445 kts | 138° |
| 2026-05-03 20:39 | 23.35806 | -73.32351 | 32286 ft | 437 kts | 138° |
| 2026-05-03 20:39 | 23.33740 | -73.29980 | 32024 ft | 428 kts | 138° |
| 2026-05-03 20:39 | 23.31712 | -73.27655 | 31777 ft | 421 kts | 138° |
| 2026-05-03 20:40 | 23.29716 | -73.25369 | 31527 ft | 413 kts | 138° |
| 2026-05-03 20:40 | 23.27748 | -73.23116 | 31290 ft | 407 kts | 138° |
| 2026-05-03 20:40 | 23.25821 | -73.20911 | 31054 ft | 400 kts | 138° |
| 2026-05-03 20:40 | 23.23915 | -73.18731 | 30810 ft | 394 kts | 138° |
| 2026-05-03 20:41 | 23.22040 | -73.16589 | 30571 ft | 388 kts | 139° |
| 2026-05-03 20:41 | 23.20212 | -73.14499 | 30338 ft | 383 kts | 139° |
| 2026-05-03 20:41 | 23.18388 | -73.12416 | 30100 ft | 378 kts | 139° |
| 2026-05-03 20:41 | 23.16591 | -73.10365 | 29831 ft | 373 kts | 139° |
| 2026-05-03 20:42 | 23.14818 | -73.08340 | 29564 ft | 367 kts | 139° |
| 2026-05-03 20:42 | 23.13071 | -73.06348 | 29278 ft | 361 kts | 139° |
| 2026-05-03 20:42 | 23.11882 | -73.04991 | 29085 ft | 357 kts | 139° |
| 2026-05-03 20:42 | 23.10185 | -73.03056 | 28825 ft | 351 kts | 139° |
| 2026-05-03 20:43 | 23.08512 | -73.01149 | 28554 ft | 346 kts | 139° |
| 2026-05-03 20:43 | 23.06867 | -72.99275 | 28289 ft | 340 kts | 139° |
| 2026-05-03 20:43 | 23.05250 | -72.97434 | 28028 ft | 335 kts | 139° |
| 2026-05-03 20:43 | 23.03654 | -72.95617 | 27778 ft | 329 kts | 139° |
| 2026-05-03 20:44 | 23.02087 | -72.93833 | 27510 ft | 324 kts | 139° |
| 2026-05-03 20:44 | 23.00545 | -72.92079 | 27253 ft | 319 kts | 139° |
| 2026-05-03 20:44 | 22.99026 | -72.90352 | 27005 ft | 315 kts | 139° |
| 2026-05-03 20:44 | 22.97523 | -72.88632 | 26760 ft | 312 kts | 138° |
| 2026-05-03 20:45 | 22.96063 | -72.86907 | 26523 ft | 310 kts | 137° |
| 2026-05-03 20:45 | 22.94640 | -72.85205 | 26284 ft | 307 kts | 137° |
| 2026-05-03 20:45 | 22.93210 | -72.83491 | 26047 ft | 305 kts | 137° |
| 2026-05-03 20:45 | 22.91790 | -72.81791 | 25811 ft | 303 kts | 137° |
| 2026-05-03 20:46 | 22.90372 | -72.80098 | 25577 ft | 304 kts | 137° |
| 2026-05-03 20:46 | 22.88948 | -72.78400 | 25442 ft | 304 kts | 137° |
| 2026-05-03 20:46 | 22.87493 | -72.76670 | 25513 ft | 319 kts | 137° |
| 2026-05-03 20:46 | 22.85948 | -72.74839 | 25509 ft | 339 kts | 137° |
| 2026-05-03 20:47 | 22.84309 | -72.72897 | 25499 ft | 359 kts | 136° |
| 2026-05-03 20:47 | 22.82585 | -72.70849 | 25506 ft | 378 kts | 136° |
| 2026-05-03 20:47 | 22.80772 | -72.68695 | 25495 ft | 395 kts | 136° |
| 2026-05-03 20:47 | 22.78885 | -72.66449 | 25496 ft | 411 kts | 136° |
| 2026-05-03 20:48 | 22.76959 | -72.64159 | 25494 ft | 424 kts | 135° |
| 2026-05-03 20:48 | 22.74948 | -72.61765 | 25481 ft | 436 kts | 135° |
| 2026-05-03 20:48 | 22.72882 | -72.59309 | 25488 ft | 445 kts | 135° |
| 2026-05-03 20:48 | 22.70780 | -72.56812 | 25479 ft | 454 kts | 135° |
| 2026-05-03 20:49 | 22.68697 | -72.54337 | 25471 ft | 457 kts | 135° |
| 2026-05-03 20:49 | 22.66507 | -72.51736 | 25458 ft | 451 kts | 135° |
| 2026-05-03 20:49 | 22.64428 | -72.49267 | 25364 ft | 435 kts | 135° |
| 2026-05-03 20:49 | 22.62423 | -72.46889 | 25272 ft | 419 kts | 135° |
| 2026-05-03 20:50 | 22.60494 | -72.44605 | 25184 ft | 403 kts | 136° |
| 2026-05-03 20:50 | 22.58625 | -72.42428 | 25098 ft | 388 kts | 136° |
| 2026-05-03 20:50 | 22.56828 | -72.40372 | 25024 ft | 375 kts | 137° |
| 2026-05-03 20:50 | 22.55071 | -72.38372 | 24934 ft | 358 kts | 137° |
| 2026-05-03 20:51 | 22.53395 | -72.36463 | 24824 ft | 340 kts | 137° |
| 2026-05-03 20:51 | 22.51807 | -72.34653 | 24724 ft | 323 kts | 137° |
| 2026-05-03 20:51 | 22.50299 | -72.32932 | 24619 ft | 307 kts | 137° |
| 2026-05-03 20:51 | 22.48860 | -72.31291 | 24371 ft | 299 kts | 138° |
| 2026-05-03 20:52 | 22.47431 | -72.29665 | 23924 ft | 298 kts | 137° |
| 2026-05-03 20:52 | 22.45996 | -72.28033 | 23404 ft | 300 kts | 137° |
| 2026-05-03 20:52 | 22.44557 | -72.26394 | 22798 ft | 302 kts | 137° |
| 2026-05-03 20:52 | 22.43108 | -72.24741 | 22200 ft | 304 kts | 136° |
| 2026-05-03 20:53 | 22.41670 | -72.23101 | 21624 ft | 305 kts | 136° |
| 2026-05-03 20:53 | 22.40211 | -72.21438 | 21098 ft | 305 kts | 136° |
| 2026-05-03 20:53 | 22.38658 | -72.19878 | 20476 ft | 305 kts | 151° |
| 2026-05-03 20:53 | 22.36689 | -72.19105 | 19841 ft | 302 kts | 176° |
| 2026-05-03 20:54 | 22.34597 | -72.19108 | 19285 ft | 301 kts | 187° |
| 2026-05-03 20:54 | 22.30411 | -72.19686 | 18037 ft | 306 kts | 189° |
| 2026-05-03 20:54 | 22.28302 | -72.19984 | 17420 ft | 307 kts | 189° |
| 2026-05-03 20:55 | 22.26189 | -72.20275 | 16840 ft | 306 kts | 188° |
| 2026-05-03 20:55 | 22.24102 | -72.20556 | 16244 ft | 306 kts | 188° |
| 2026-05-03 20:55 | 22.21991 | -72.20836 | 15619 ft | 306 kts | 188° |
| 2026-05-03 20:55 | 22.19872 | -72.21113 | 15005 ft | 307 kts | 188° |
| 2026-05-03 20:56 | 22.17747 | -72.21389 | 14323 ft | 309 kts | 188° |
| 2026-05-03 20:56 | 22.15608 | -72.21684 | 13618 ft | 310 kts | 189° |
| 2026-05-03 20:56 | 22.13453 | -72.21975 | 12792 ft | 313 kts | 187° |
| 2026-05-03 20:56 | 22.11284 | -72.22236 | 11990 ft | 315 kts | 187° |
| 2026-05-03 20:57 | 22.09103 | -72.22516 | 11177 ft | 316 kts | 188° |
| 2026-05-03 20:57 | 22.06950 | -72.22805 | 10398 ft | 316 kts | 186° |
| 2026-05-03 20:57 | 22.04763 | -72.23061 | 9582 ft | 316 kts | 186° |
| 2026-05-03 20:57 | 22.02573 | -72.23332 | 8740 ft | 315 kts | 187° |
| 2026-05-03 20:58 | 22.00411 | -72.23687 | 7963 ft | 313 kts | 190° |
| 2026-05-03 20:58 | 21.98304 | -72.24119 | 7424 ft | 304 kts | 191° |
| 2026-05-03 20:58 | 21.96275 | -72.24585 | 6976 ft | 293 kts | 198° |
| 2026-05-03 20:58 | 21.94597 | -72.25758 | 6600 ft | 289 kts | 230° |
| 2026-05-03 20:59 | 21.93762 | -72.27689 | 6218 ft | 287 kts | 261° |
| 2026-05-03 20:59 | 21.93545 | -72.29814 | 5862 ft | 284 kts | 261° |
| 2026-05-03 20:59 | 21.93190 | -72.31864 | 5480 ft | 281 kts | 254° |
| 2026-05-03 20:59 | 21.92570 | -72.33848 | 5122 ft | 278 kts | 245° |
| 2026-05-03 21:00 | 21.91705 | -72.35699 | 4771 ft | 275 kts | 238° |
| 2026-05-03 21:00 | 21.91006 | -72.36862 | 4542 ft | 272 kts | 233° |
| 2026-05-03 21:00 | 21.89437 | -72.38876 | 4083 ft | 269 kts | 225° |
| 2026-05-03 21:00 | 21.88093 | -72.40248 | 3720 ft | 267 kts | 219° |
| 2026-05-03 21:01 | 21.86641 | -72.41491 | 3378 ft | 264 kts | 214° |
| 2026-05-03 21:01 | 21.85108 | -72.42502 | 3241 ft | 253 kts | 206° |
| 2026-05-03 21:01 | 21.83532 | -72.43269 | 3096 ft | 244 kts | 199° |
| 2026-05-03 21:01 | 21.81953 | -72.43829 | 2977 ft | 235 kts | 194° |
| 2026-05-03 21:02 | 21.80413 | -72.44191 | 2853 ft | 224 kts | 179° |
| 2026-05-03 21:02 | 21.79030 | -72.43655 | 2765 ft | 209 kts | 138° |
| 2026-05-03 21:02 | 21.78312 | -72.42342 | 2544 ft | 205 kts | 101° |
| 2026-05-03 21:02 | 21.78169 | -72.40830 | 2358 ft | 205 kts | 96° |
| 2026-05-03 21:03 | 21.78026 | -72.39302 | 2090 ft | 206 kts | 93° |
| 2026-05-03 21:03 | 21.77970 | -72.37767 | 1815 ft | 202 kts | 95° |
| 2026-05-03 21:03 | 21.77894 | -72.36298 | 1556 ft | 190 kts | 94° |
| 2026-05-03 21:03 | 21.77815 | -72.34940 | 1298 ft | 174 kts | 95° |
| 2026-05-03 21:04 | 21.77731 | -72.33705 | 1087 ft | 157 kts | 94° |
| 2026-05-03 21:04 | 21.77701 | -72.32628 | 889 ft | 137 kts | 94° |
| 2026-05-03 21:04 | 21.77648 | -72.31646 | 743 ft | 133 kts | 94° |
| 2026-05-03 21:04 | 21.77590 | -72.30662 | 561 ft | 131 kts | 95° |
| 2026-05-03 21:05 | 21.77516 | -72.29674 | 368 ft | 133 kts | 90° |
| 2026-05-03 21:05 | 21.77469 | -72.28672 | 193 ft | 135 kts | 94° |
| 2026-05-03 21:05 | 21.77413 | -72.27681 | 42 ft | 127 kts | 94° |
| 2026-05-03 21:05 | 21.77372 | -72.26851 | 28 ft | 91 kts | 93° |
| 2026-05-03 21:06 | 21.77344 | -72.26332 | 22 ft | 48 kts | 93° |
| 2026-05-03 21:06 | 21.77343 | -72.26099 | 20 ft | 27 kts | 78° |
| 2026-05-03 21:06 | 21.77334 | -72.26070 | 24 ft | 11 kts | 277° |
| 2026-05-03 21:06 | 21.77338 | -72.26171 | 20 ft | 15 kts | 266° |
| 2026-05-03 21:07 | 21.77345 | -72.26309 | 22 ft | 26 kts | 274° |
| 2026-05-03 21:07 | 21.77358 | -72.26564 | 26 ft | 40 kts | 273° |
| 2026-05-03 21:07 | 21.77371 | -72.26862 | 26 ft | 39 kts | 272° |
| 2026-05-03 21:07 | 21.77383 | -72.27034 | 28 ft | 6 kts | 284° |
| 2026-05-03 21:08 | 21.77458 | -72.27070 | 28 ft | 11 kts | 1° |
| 2026-05-03 21:08 | 21.77478 | -72.27070 | 28 ft | 0 kts | 2° |
| 2026-05-03 21:09 | 21.77495 | -72.27075 | 28 ft | 3 kts | 330° |
| 2026-05-03 21:09 | 21.77499 | -72.27081 | 28 ft | 3 kts | 309° |
| 2026-05-03 21:09 | 21.77507 | -72.27114 | 28 ft | 6 kts | 278° |
| 2026-05-03 21:09 | 21.77531 | -72.27127 | 28 ft | 5 kts | 28° |
| 2026-05-03 21:10 | 21.77561 | -72.27106 | 28 ft | 1 kts | 36° |
| 2026-05-03 21:10 | 21.77566 | -72.27103 | 28 ft | 1 kts | 36° |
| 2026-05-03 21:10 | 21.77571 | -72.27099 | 28 ft | 0 kts | 36° |